createdAt,value
2022-12-08T00:01:16.468Z,19.37
2022-12-08T00:04:18.066Z,17.40
2022-12-08T00:07:38.620Z,19.42
2022-12-08T00:10:50.788Z,18.50
2022-12-08T00:13:52.502Z,17.53
2022-12-08T00:16:54.947Z,17.00
2022-12-08T00:19:56.714Z,18.40
2022-12-08T00:22:58.360Z,17.85
2022-12-08T00:26:04.957Z,18.75
2022-12-08T00:29:06.903Z,20.47
2022-12-08T00:32:08.619Z,18.70
2022-12-08T00:35:10.236Z,19.27
2022-12-08T00:38:11.881Z,19.08
2022-12-08T00:41:40.775Z,20.42
2022-12-08T00:44:44.085Z,20.40
2022-12-08T00:47:45.703Z,19.63
2022-12-08T00:50:47.354Z,19.75
2022-12-08T00:53:48.964Z,20.23
2022-12-08T00:56:50.724Z,19.83
2022-12-08T00:59:52.354Z,17.77
2022-12-08T01:02:53.995Z,19.63
2022-12-08T01:05:55.816Z,18.85
2022-12-08T01:08:58.133Z,18.15
2022-12-08T01:11:59.882Z,19.63
2022-12-08T01:15:02.648Z,19.23
2022-12-08T01:18:04.929Z,18.93
2022-12-08T01:21:08.378Z,19.98
2022-12-08T01:24:20.975Z,18.88
2022-12-08T01:27:22.675Z,19.77
2022-12-08T01:30:24.508Z,19.73
2022-12-08T01:33:26.902Z,19.10
2022-12-08T01:36:31.153Z,18.80
2022-12-08T01:39:32.858Z,18.23
2022-12-08T01:42:34.605Z,19.40
2022-12-08T01:45:36.185Z,18.30
2022-12-08T01:48:37.843Z,19.93
2022-12-08T01:51:46.112Z,18.83
2022-12-08T01:55:12.876Z,18.58
2022-12-08T01:58:20.922Z,19.48
2022-12-08T02:01:23.298Z,19.27
2022-12-08T02:04:25.012Z,19.37
2022-12-08T02:07:27.367Z,19.80
2022-12-08T02:10:32.844Z,22.17
2022-12-08T02:13:34.638Z,20.02
2022-12-08T02:16:48.756Z,20.93
2022-12-08T02:19:53.332Z,21.80
2022-12-08T02:23:11.446Z,21.42
2022-12-08T02:26:34.782Z,21.52
2022-12-08T02:30:14.093Z,20.65
2022-12-08T02:33:39.470Z,23.27
2022-12-08T02:36:54.073Z,25.93
2022-12-08T02:40:11.603Z,29.40
2022-12-08T02:43:20.313Z,28.52
2022-12-08T02:46:27.269Z,29.35
2022-12-08T02:49:31.194Z,27.50
2022-12-08T02:52:32.785Z,26.07
2022-12-08T02:55:44.512Z,26.70
2022-12-08T02:59:10.857Z,25.95
2022-12-08T03:02:30.863Z,24.65
2022-12-08T03:05:46.878Z,27.17
2022-12-08T03:08:59.655Z,25.90
2022-12-08T03:12:17.657Z,24.90
2022-12-08T03:15:21.689Z,22.35
2022-12-08T03:18:28.954Z,22.65
2022-12-08T03:21:33.376Z,26.03
2022-12-08T03:24:38.683Z,23.83
2022-12-08T03:27:41.130Z,20.08
2022-12-08T03:30:47.377Z,20.70
2022-12-08T03:33:52.537Z,20.10
2022-12-08T03:36:54.789Z,19.90
2022-12-08T03:39:56.951Z,18.17
2022-12-08T03:42:58.851Z,18.70
2022-12-08T03:46:00.511Z,18.25
2022-12-08T03:49:02.582Z,18.40
2022-12-08T03:52:04.418Z,17.73
2022-12-08T03:55:06.691Z,18.23
2022-12-08T03:58:08.384Z,17.13
2022-12-08T04:01:10.039Z,17.90
2022-12-08T04:04:11.782Z,18.15
2022-12-08T04:07:13.397Z,19.63
2022-12-08T04:10:15.872Z,19.37
2022-12-08T04:13:17.522Z,18.95
2022-12-08T04:16:21.975Z,19.48
2022-12-08T04:19:23.832Z,19.23
2022-12-08T04:22:25.634Z,20.60
2022-12-08T04:25:27.849Z,19.67
2022-12-08T04:28:29.794Z,19.60
2022-12-08T04:31:31.499Z,20.80
2022-12-08T04:34:33.212Z,24.92
2022-12-08T04:37:34.960Z,24.97
2022-12-08T04:40:36.915Z,19.93
2022-12-08T04:43:38.632Z,22.55
2022-12-08T04:46:43.404Z,20.90
2022-12-08T04:49:45.467Z,18.92
2022-12-08T04:52:47.240Z,18.20
2022-12-08T04:55:49.715Z,17.77
2022-12-08T04:58:51.338Z,17.33
2022-12-08T05:01:53.148Z,16.50
2022-12-08T05:04:54.896Z,16.25
2022-12-08T05:07:56.807Z,16.00
2022-12-08T05:11:06.980Z,16.97
2022-12-08T05:14:13.379Z,17.42
2022-12-08T05:17:16.044Z,17.00
2022-12-08T05:20:17.834Z,16.83
2022-12-08T05:23:19.462Z,18.00
2022-12-08T05:26:21.102Z,17.17
2022-12-08T05:29:22.769Z,17.95
2022-12-08T05:32:24.442Z,17.48
2022-12-08T05:35:26.043Z,20.48
2022-12-08T05:38:27.657Z,17.70
2022-12-08T05:41:29.350Z,16.73
2022-12-08T05:44:30.947Z,17.60
2022-12-08T05:47:36.003Z,17.58
2022-12-08T05:50:38.194Z,16.45
2022-12-08T05:53:39.996Z,20.50
2022-12-08T05:56:42.060Z,18.60
2022-12-08T05:59:44.268Z,18.52
2022-12-08T06:02:46.070Z,19.38
2022-12-08T06:05:48.097Z,19.17
2022-12-08T06:08:49.960Z,19.37
2022-12-08T06:11:51.654Z,20.20
2022-12-08T06:14:53.288Z,21.75
2022-12-08T06:17:55.005Z,20.67
2022-12-08T06:21:08.075Z,19.95
2022-12-08T06:24:09.735Z,18.67
2022-12-08T06:27:11.462Z,19.27
2022-12-08T06:30:19.030Z,19.33
2022-12-08T06:33:22.196Z,18.70
2022-12-08T06:36:27.053Z,19.05
2022-12-08T06:39:28.788Z,18.33
2022-12-08T06:42:44.503Z,17.47
2022-12-08T06:45:49.804Z,18.13
2022-12-08T06:48:54.309Z,17.10
2022-12-08T06:51:55.940Z,19.17
2022-12-08T06:54:57.825Z,22.37
2022-12-08T06:57:59.605Z,18.90
2022-12-08T07:01:09.565Z,18.27
2022-12-08T07:04:12.187Z,16.15
2022-12-08T07:07:13.823Z,18.75
2022-12-08T07:10:15.498Z,17.90
2022-12-08T07:13:17.147Z,17.90
2022-12-08T07:16:19.131Z,18.27
2022-12-08T07:19:20.877Z,18.15
2022-12-08T07:22:22.472Z,18.15
2022-12-08T07:25:24.126Z,16.73
2022-12-08T07:28:25.970Z,18.20
2022-12-08T07:31:28.914Z,19.75
2022-12-08T07:34:30.686Z,33.08
2022-12-08T07:37:36.151Z,34.95
2022-12-08T07:40:39.150Z,18.90
2022-12-08T07:43:42.007Z,18.83
2022-12-08T07:46:43.689Z,18.60
2022-12-08T07:49:45.474Z,17.73
2022-12-08T07:52:47.143Z,16.98
2022-12-08T07:55:48.943Z,18.03
2022-12-08T07:58:51.097Z,17.63
2022-12-08T08:02:19.553Z,18.23
2022-12-08T08:05:16.839Z,18.40
2022-12-08T08:08:18.914Z,19.52
2022-12-08T08:11:21.895Z,18.60
2022-12-08T08:14:23.654Z,19.40
2022-12-08T08:17:25.387Z,18.88
2022-12-08T08:20:27.146Z,18.40
2022-12-08T08:23:28.904Z,17.98
2022-12-08T08:26:30.608Z,20.33
2022-12-08T08:29:32.282Z,17.93
2022-12-08T08:32:34.909Z,18.20
2022-12-08T08:35:36.568Z,16.85
2022-12-08T08:38:43.181Z,16.33
2022-12-08T08:41:44.757Z,19.47
2022-12-08T08:44:46.614Z,15.07
2022-12-08T08:47:48.369Z,15.30
2022-12-08T08:50:50.027Z,15.20
2022-12-08T08:53:52.083Z,16.42
2022-12-08T08:56:53.742Z,14.20
2022-12-08T08:59:55.489Z,14.07
2022-12-08T09:02:57.174Z,13.50
2022-12-08T09:06:26.551Z,12.82
2022-12-08T09:09:35.337Z,12.98
2022-12-08T09:12:37.006Z,11.80
2022-12-08T09:15:39.020Z,12.37
2022-12-08T09:18:41.717Z,12.20
2022-12-08T09:21:43.616Z,12.30
2022-12-08T09:25:13.826Z,12.65
2022-12-08T09:28:23.436Z,13.30
2022-12-08T09:31:54.982Z,12.87
2022-12-08T09:35:39.271Z,12.68
2022-12-08T09:39:07.352Z,10.50
2022-12-08T09:43:09.134Z,10.20
2022-12-08T09:46:19.427Z,11.70
2022-12-08T09:49:28.650Z,12.87
2022-12-08T09:52:37.614Z,9.90
2022-12-08T09:56:02.048Z,10.70
2022-12-08T09:59:06.298Z,11.48
2022-12-08T10:02:29.646Z,10.57
2022-12-08T10:05:37.719Z,10.03
2022-12-08T10:08:55.679Z,9.75
2022-12-08T10:12:04.225Z,10.63
2022-12-08T10:15:45.599Z,10.23
2022-12-08T10:18:57.583Z,9.63
2022-12-08T10:21:59.600Z,9.57
2022-12-08T10:25:11.112Z,9.27
2022-12-08T10:28:13.370Z,9.20
2022-12-08T10:31:25.536Z,10.77
2022-12-08T10:34:27.449Z,9.10
2022-12-08T10:37:29.542Z,8.40
2022-12-08T10:40:42.201Z,8.68
2022-12-08T10:43:51.197Z,9.02
2022-12-08T10:46:52.899Z,8.60
2022-12-08T10:50:28.940Z,9.00
2022-12-08T10:57:55.024Z,8.98
2022-12-08T11:01:19.887Z,8.65
2022-12-08T11:04:38.141Z,10.10
2022-12-08T11:07:47.424Z,10.17
2022-12-08T11:10:49.732Z,9.27
2022-12-08T11:13:51.914Z,9.05
2022-12-08T11:17:06.226Z,8.68
2022-12-08T11:20:11.469Z,8.35
2022-12-08T11:23:21.514Z,8.53
2022-12-08T11:26:35.258Z,8.50
2022-12-08T11:29:37.143Z,7.35
2022-12-08T11:32:43.043Z,8.07
2022-12-08T11:35:49.355Z,8.20
2022-12-08T11:38:55.566Z,8.73
2022-12-08T11:41:58.789Z,8.70
2022-12-08T11:45:07.479Z,9.15
2022-12-08T11:48:43.234Z,8.82
2022-12-08T11:52:26.897Z,7.93
2022-12-08T11:55:42.707Z,7.97
2022-12-08T11:58:57.814Z,7.07
2022-12-08T12:02:04.315Z,8.60
2022-12-08T12:06:08.736Z,8.05
2022-12-08T12:09:13.687Z,9.63
2022-12-08T12:12:39.481Z,9.03
2022-12-08T12:16:09.819Z,8.93
2022-12-08T12:19:17.917Z,8.10
2022-12-08T12:22:36.570Z,8.55
2022-12-08T12:25:59.203Z,9.20
2022-12-08T12:29:23.986Z,11.73
2022-12-08T12:32:39.787Z,12.40
2022-12-08T12:35:44.931Z,8.95
2022-12-08T12:39:01.396Z,9.35
2022-12-08T12:42:05.629Z,9.88
2022-12-08T12:45:21.932Z,10.00
2022-12-08T12:48:25.811Z,10.77
2022-12-08T12:51:39.660Z,12.70
2022-12-08T12:54:50.373Z,10.80
2022-12-08T12:57:57.695Z,12.57
2022-12-08T13:01:11.575Z,14.13
2022-12-08T13:04:13.980Z,13.43
2022-12-08T13:07:26.009Z,12.68
2022-12-08T13:10:32.817Z,12.18
2022-12-08T13:13:35.408Z,12.82
2022-12-08T13:16:40.325Z,13.03
2022-12-08T13:19:45.348Z,10.53
2022-12-08T13:22:54.843Z,8.90
2022-12-08T13:26:17.547Z,9.63
2022-12-08T13:29:24.642Z,9.10
2022-12-08T13:32:30.651Z,9.00
2022-12-08T13:35:42.712Z,10.00
2022-12-08T13:38:46.643Z,11.20
2022-12-08T13:41:59.289Z,10.05
2022-12-08T13:45:39.643Z,10.48
2022-12-08T13:50:54.697Z,10.80
2022-12-08T13:59:36.150Z,8.23
2022-12-08T14:02:47.678Z,8.60
2022-12-08T14:06:18.297Z,8.57
2022-12-08T14:09:16.186Z,10.23
2022-12-08T14:12:24.846Z,10.07
2022-12-08T14:15:29.152Z,10.40
2022-12-08T14:18:32.947Z,9.55
2022-12-08T14:21:36.401Z,9.40
2022-12-08T14:24:39.582Z,9.77
2022-12-08T14:27:41.821Z,10.27
2022-12-08T14:30:43.628Z,10.38
2022-12-08T14:33:45.406Z,8.93
2022-12-08T14:36:47.257Z,8.90
2022-12-08T14:39:49.881Z,8.57
2022-12-08T14:43:05.682Z,8.57
2022-12-08T14:46:22.041Z,9.07
2022-12-08T14:49:38.178Z,9.13
2022-12-08T14:52:44.701Z,9.83
2022-12-08T14:55:48.292Z,9.37
2022-12-08T14:59:02.219Z,9.70
2022-12-08T15:02:16.140Z,10.18
2022-12-08T15:05:20.634Z,9.57
2022-12-08T15:08:22.707Z,9.87
2022-12-08T15:11:24.320Z,9.63
2022-12-08T15:14:53.473Z,9.60
2022-12-08T15:18:02.423Z,12.13
2022-12-08T15:21:06.792Z,13.13
2022-12-08T15:24:15.565Z,11.10
2022-12-08T15:27:22.962Z,11.33
2022-12-08T15:30:28.743Z,10.73
2022-12-08T15:33:30.375Z,12.10
2022-12-08T15:36:32.087Z,15.70
2022-12-08T15:39:37.725Z,15.67
2022-12-08T15:42:39.315Z,15.93
2022-12-08T15:45:50.541Z,11.95
2022-12-08T15:48:59.540Z,8.77
2022-12-08T15:52:11.307Z,8.30
2022-12-08T15:55:14.899Z,10.50
2022-12-08T16:01:44.495Z,10.95
2022-12-08T16:05:25.620Z,8.98
2022-12-08T16:08:38.250Z,9.15
2022-12-08T16:12:06.340Z,9.63
2022-12-08T16:18:35.983Z,11.68
2022-12-08T16:22:29.726Z,15.90
2022-12-08T16:25:14.714Z,12.32
2022-12-08T16:31:41.689Z,14.30
2022-12-08T16:34:43.799Z,16.10
2022-12-08T16:37:45.770Z,23.45
2022-12-08T16:41:06.612Z,24.40
2022-12-08T16:44:08.263Z,16.50
2022-12-08T16:47:10.738Z,17.70
2022-12-08T16:50:21.435Z,16.52
2022-12-08T16:53:23.583Z,23.13
2022-12-08T16:56:32.218Z,19.08
2022-12-08T16:59:34.646Z,16.67
2022-12-08T17:02:36.494Z,16.27
2022-12-08T17:05:40.835Z,17.95
2022-12-08T17:08:43.413Z,14.77
2022-12-08T17:11:45.513Z,17.58
2022-12-08T17:14:47.193Z,15.20
2022-12-08T17:17:49.159Z,15.07
2022-12-08T17:20:50.969Z,14.90
2022-12-08T17:23:52.758Z,15.00
2022-12-08T17:26:58.658Z,16.42
2022-12-08T17:30:00.376Z,18.10
2022-12-08T17:33:02.064Z,17.17
2022-12-08T17:36:03.968Z,15.23
2022-12-08T17:39:12.042Z,15.95
2022-12-08T17:42:16.553Z,15.38
2022-12-08T17:45:18.460Z,15.40
2022-12-08T17:48:20.378Z,15.13
2022-12-08T17:51:22.579Z,20.05
2022-12-08T17:54:25.698Z,17.50
2022-12-08T17:57:27.280Z,16.13
2022-12-08T18:00:29.244Z,26.00
2022-12-08T18:03:31.075Z,18.70
2022-12-08T18:06:33.774Z,17.23
2022-12-08T18:09:35.670Z,16.63
2022-12-08T18:12:37.608Z,16.27
2022-12-08T18:15:39.765Z,16.27
2022-12-08T18:18:41.747Z,14.57
2022-12-08T18:21:43.671Z,14.35
2022-12-08T18:24:47.572Z,13.55
2022-12-08T18:27:49.452Z,15.23
2022-12-08T18:30:51.262Z,23.93
2022-12-08T18:33:53.943Z,20.07
2022-12-08T18:36:55.543Z,29.67
2022-12-08T18:39:57.235Z,26.63
2022-12-08T18:42:59.208Z,25.35
2022-12-08T18:46:02.340Z,23.87
2022-12-08T18:49:04.521Z,20.90
2022-12-08T18:52:06.355Z,21.52
2022-12-08T18:55:08.952Z,20.30
2022-12-08T18:58:14.810Z,20.38
2022-12-08T19:01:16.969Z,19.07
2022-12-08T19:04:38.548Z,16.27
2022-12-08T19:07:42.423Z,17.42
2022-12-08T19:10:44.350Z,19.88
2022-12-08T19:13:46.541Z,19.83
2022-12-08T19:16:48.325Z,15.57
2022-12-08T19:19:50.128Z,15.83
2022-12-08T19:22:52.007Z,14.85
2022-12-08T19:25:53.672Z,16.05
2022-12-08T19:28:56.097Z,14.77
2022-12-08T19:31:58.145Z,16.60
2022-12-08T19:35:00.335Z,17.83
2022-12-08T19:38:02.173Z,17.40
2022-12-08T19:41:23.998Z,19.67
2022-12-08T19:44:46.581Z,16.80
2022-12-08T19:47:48.670Z,15.73
2022-12-08T19:50:50.695Z,15.30
2022-12-08T19:53:52.664Z,15.65
2022-12-08T19:56:54.341Z,15.27
2022-12-08T19:59:56.514Z,15.70
2022-12-08T20:02:59.834Z,16.20
2022-12-08T20:06:01.701Z,16.10
2022-12-08T20:09:03.606Z,15.55
2022-12-08T20:12:05.847Z,16.20
2022-12-08T20:15:10.139Z,15.82
2022-12-08T20:18:13.676Z,15.20
2022-12-08T20:21:16.452Z,13.67
2022-12-08T20:24:18.387Z,14.80
2022-12-08T20:27:20.294Z,13.57
2022-12-08T20:30:22.340Z,13.60
2022-12-08T20:33:24.266Z,15.27
2022-12-08T20:36:26.382Z,15.40
2022-12-08T20:39:28.326Z,15.40
2022-12-08T20:42:30.086Z,15.10
2022-12-08T20:45:31.956Z,15.57
2022-12-08T20:48:34.310Z,15.37
2022-12-08T20:51:39.213Z,13.80
2022-12-08T20:54:41.390Z,13.98
2022-12-08T20:57:43.340Z,15.25
2022-12-08T21:00:45.053Z,14.02
2022-12-08T21:03:48.670Z,15.70
2022-12-08T21:06:50.410Z,16.73
2022-12-08T21:09:52.648Z,16.33
2022-12-08T21:12:54.722Z,15.80
2022-12-08T21:15:56.848Z,17.33
2022-12-08T21:18:58.862Z,17.50
2022-12-08T21:22:00.711Z,16.97
2022-12-08T21:25:02.368Z,16.90
2022-12-08T21:28:04.078Z,17.73
2022-12-08T21:31:10.775Z,17.38
2022-12-08T21:34:13.096Z,17.17
2022-12-08T21:37:14.909Z,17.87
2022-12-08T21:40:16.735Z,18.02
2022-12-08T21:43:18.832Z,18.63
2022-12-08T21:46:21.271Z,17.48
2022-12-08T21:49:23.217Z,16.87
2022-12-08T21:52:25.079Z,17.83
2022-12-08T21:55:26.925Z,16.90
2022-12-08T21:58:28.619Z,17.48
2022-12-08T22:01:30.563Z,16.33
2022-12-08T22:04:32.553Z,17.23
2022-12-08T22:07:38.328Z,16.93
2022-12-08T22:10:47.010Z,17.73
2022-12-08T22:13:48.920Z,17.30
2022-12-08T22:16:50.721Z,17.58
2022-12-08T22:19:52.345Z,19.53
2022-12-08T22:22:54.160Z,17.67
2022-12-08T22:26:00.599Z,16.65
2022-12-08T22:29:02.492Z,19.20
2022-12-08T22:32:04.512Z,17.77
2022-12-08T22:35:06.577Z,18.63
2022-12-08T22:38:08.352Z,18.57
2022-12-08T22:41:10.123Z,17.48
2022-12-08T22:44:14.080Z,18.65
2022-12-08T22:47:15.735Z,18.25
2022-12-08T22:50:18.047Z,19.03
2022-12-08T22:53:20.080Z,20.33
2022-12-08T22:56:21.989Z,16.70
2022-12-08T22:59:23.903Z,19.77
2022-12-08T23:02:25.557Z,18.23
2022-12-08T23:05:27.517Z,19.90
2022-12-08T23:08:29.484Z,18.90
2022-12-08T23:11:31.823Z,22.40
2022-12-08T23:14:33.474Z,17.75
2022-12-08T23:17:35.282Z,19.02
2022-12-08T23:20:36.980Z,21.87
2022-12-08T23:23:38.647Z,22.17
2022-12-08T23:26:40.257Z,22.20
2022-12-08T23:29:41.884Z,22.85
2022-12-08T23:32:43.652Z,21.17
2022-12-08T23:35:45.353Z,22.70
2022-12-08T23:38:47.285Z,22.30
2022-12-08T23:41:48.939Z,21.25
2022-12-08T23:44:50.491Z,23.67
2022-12-08T23:47:52.536Z,22.00
2022-12-08T23:50:54.530Z,23.40
2022-12-08T23:53:56.248Z,23.43
2022-12-08T23:56:57.879Z,25.35
2022-12-08T23:59:59.757Z,23.67
